createdAt,value
2023-04-30T00:02:09.117Z,41331.94
2023-04-30T00:04:35.647Z,41307.97
2023-04-30T00:07:02.323Z,41315.97
2023-04-30T00:09:28.837Z,41341.91
2023-04-30T00:11:55.402Z,41341.91
2023-04-30T00:14:21.929Z,41351.88
2023-04-30T00:16:48.402Z,41327.94
2023-04-30T00:19:14.830Z,41317.97
2023-04-30T00:21:42.161Z,41343.91
2023-04-30T00:24:08.630Z,41345.91
2023-04-30T00:26:35.207Z,41303.97
2023-04-30T00:29:01.709Z,41351.88
2023-04-30T00:31:28.276Z,41335.91
2023-04-30T00:33:54.690Z,41337.91
2023-04-30T00:36:21.375Z,41337.91
2023-04-30T00:38:47.848Z,41337.91
2023-04-30T00:41:14.861Z,41341.91
2023-04-30T00:43:41.270Z,41331.94
2023-04-30T00:46:07.884Z,41327.94
2023-04-30T00:48:34.399Z,41317.97
2023-04-30T00:51:03.877Z,41311.97
2023-04-30T00:53:31.484Z,41319.94
2023-04-30T00:55:57.939Z,41331.94
2023-04-30T00:58:25.905Z,41319.94
2023-04-30T01:00:53.009Z,41325.94
2023-04-30T01:03:20.221Z,41315.97
2023-04-30T01:05:46.749Z,41327.94
2023-04-30T01:08:13.480Z,41319.94
2023-04-30T01:10:52.335Z,41323.94
2023-04-30T01:13:53.415Z,41323.94
2023-04-30T01:16:25.267Z,41311.97
2023-04-30T01:19:05.077Z,41335.91
2023-04-30T01:21:33.448Z,41327.94
2023-04-30T01:24:36.432Z,41347.91
2023-04-30T01:27:24.397Z,41343.91
2023-04-30T01:29:53.570Z,41339.91
2023-04-30T01:32:20.220Z,41309.97
2023-04-30T01:34:46.601Z,41303.97
2023-04-30T01:37:18.954Z,41300.00
2023-04-30T01:39:48.354Z,41315.97
2023-04-30T01:42:25.514Z,41319.94
2023-04-30T01:44:51.884Z,41319.94
2023-04-30T01:47:39.104Z,41323.94
2023-04-30T01:50:41.083Z,41311.97
2023-04-30T01:53:12.188Z,41309.97
2023-04-30T01:55:43.374Z,41323.94
2023-04-30T01:58:12.314Z,41296.00
2023-04-30T02:00:38.707Z,41311.97
2023-04-30T02:03:05.469Z,41300.00
2023-04-30T02:05:32.124Z,41327.94
2023-04-30T02:07:59.707Z,41331.94
2023-04-30T02:10:29.376Z,41323.94
2023-04-30T02:12:55.943Z,41331.94
2023-04-30T02:15:22.453Z,41323.94
2023-04-30T02:17:49.329Z,41319.94
2023-04-30T02:20:16.048Z,41325.94
2023-04-30T02:22:42.755Z,41323.94
2023-04-30T02:25:11.237Z,41327.94
2023-04-30T02:27:38.605Z,41321.94
2023-04-30T02:30:06.360Z,41311.97
2023-04-30T02:32:32.941Z,41323.94
2023-04-30T02:34:59.633Z,41315.97
2023-04-30T02:37:26.234Z,41303.97
2023-04-30T02:39:53.630Z,41329.94
2023-04-30T02:42:20.436Z,41300.00
2023-04-30T02:44:46.888Z,41313.97
2023-04-30T02:47:13.345Z,41311.97
2023-04-30T02:49:40.074Z,41309.97
2023-04-30T02:52:09.419Z,41315.97
2023-04-30T02:54:36.418Z,41323.94
2023-04-30T02:57:03.627Z,41321.94
2023-04-30T02:59:30.569Z,41345.91
2023-04-30T03:01:57.159Z,41331.94
2023-04-30T03:04:23.605Z,41319.94
2023-04-30T03:06:50.086Z,41300.00
2023-04-30T03:09:16.816Z,41311.97
2023-04-30T03:11:43.199Z,41309.97
2023-04-30T03:14:09.640Z,41315.97
2023-04-30T03:16:36.638Z,41341.91
2023-04-30T03:19:03.457Z,41315.97
2023-04-30T03:21:30.887Z,41327.94
2023-04-30T03:23:57.910Z,41331.94
2023-04-30T03:26:24.471Z,41331.94
2023-04-30T03:28:50.894Z,41327.94
2023-04-30T03:31:17.831Z,41296.00
2023-04-30T03:33:44.898Z,41347.91
2023-04-30T03:36:11.686Z,41347.91
2023-04-30T03:38:38.142Z,41361.88
2023-04-30T03:41:04.797Z,41337.91
2023-04-30T03:43:31.363Z,41379.84
2023-04-30T03:45:58.077Z,41369.84
2023-04-30T03:48:25.314Z,41387.81
2023-04-30T03:50:51.788Z,41355.88
2023-04-30T03:53:18.267Z,41363.88
2023-04-30T03:55:45.086Z,41379.84
2023-04-30T03:58:11.673Z,41403.78
2023-04-30T04:00:41.423Z,41419.75
2023-04-30T04:03:08.822Z,41417.75
2023-04-30T04:05:35.291Z,41451.69
2023-04-30T04:08:01.769Z,41447.69
2023-04-30T04:10:28.553Z,41451.69
2023-04-30T04:12:55.557Z,41475.63
2023-04-30T04:15:22.114Z,41487.63
2023-04-30T04:17:49.027Z,41483.63
2023-04-30T04:20:15.519Z,41505.59
2023-04-30T04:22:43.491Z,41515.56
2023-04-30T04:25:10.411Z,41513.56
2023-04-30T04:27:37.409Z,41519.56
2023-04-30T04:30:04.254Z,41539.53
2023-04-30T04:32:32.556Z,41505.59
2023-04-30T04:34:59.438Z,41531.53
2023-04-30T04:37:26.142Z,41525.53
2023-04-30T04:39:52.803Z,41527.53
2023-04-30T04:42:20.419Z,41499.59
2023-04-30T04:44:47.367Z,41519.56
2023-04-30T04:47:13.843Z,41527.53
2023-04-30T04:49:40.257Z,41527.53
2023-04-30T04:52:07.026Z,41557.47
2023-04-30T04:54:33.910Z,41579.44
2023-04-30T04:57:01.135Z,41577.44
2023-04-30T04:59:27.516Z,41603.41
2023-04-30T05:01:55.108Z,41565.47
2023-04-30T05:04:21.748Z,41607.38
2023-04-30T05:06:49.252Z,41595.41
2023-04-30T05:09:16.269Z,41611.38
2023-04-30T05:11:43.716Z,41619.38
2023-04-30T05:14:10.166Z,41651.31
2023-04-30T05:16:36.677Z,41667.28
2023-04-30T05:19:03.452Z,41633.34
2023-04-30T05:21:29.934Z,41647.31
2023-04-30T05:23:56.371Z,41679.25
2023-04-30T05:26:24.295Z,41677.25
2023-04-30T05:28:52.224Z,41683.25
2023-04-30T05:31:20.966Z,41667.28
2023-04-30T05:33:47.768Z,41675.25
2023-04-30T05:36:14.676Z,41683.25
2023-04-30T05:38:41.341Z,41703.19
2023-04-30T05:41:07.986Z,41681.25
2023-04-30T05:43:34.619Z,41669.25
2023-04-30T05:46:01.101Z,41705.19
2023-04-30T05:48:27.640Z,41695.22
2023-04-30T05:50:54.144Z,41707.19
2023-04-30T05:53:20.644Z,41711.19
2023-04-30T05:55:47.098Z,41723.16
2023-04-30T05:58:13.495Z,41695.22
2023-04-30T06:00:39.869Z,41723.16
2023-04-30T06:03:06.418Z,41723.16
2023-04-30T06:05:32.943Z,41739.13
2023-04-30T06:07:59.415Z,41759.09
2023-04-30T06:10:26.681Z,41739.13
2023-04-30T06:12:53.141Z,41723.16
2023-04-30T06:15:19.713Z,41743.13
2023-04-30T06:17:46.458Z,41773.06
2023-04-30T06:20:14.450Z,41753.09
2023-04-30T06:22:41.254Z,41747.13
2023-04-30T06:25:08.198Z,41747.13
2023-04-30T06:27:34.895Z,41753.09
2023-04-30T06:30:01.375Z,41735.16
2023-04-30T06:32:27.908Z,41721.16
2023-04-30T06:34:55.181Z,41743.13
2023-04-30T06:37:21.604Z,41719.16
2023-04-30T06:39:48.014Z,41705.19
2023-04-30T06:42:14.396Z,41731.16
2023-04-30T06:44:41.340Z,41695.22
2023-04-30T06:47:08.316Z,41715.19
2023-04-30T06:49:34.732Z,41727.16
2023-04-30T06:52:01.455Z,41741.13
2023-04-30T06:54:27.841Z,41715.19
2023-04-30T06:56:54.366Z,41725.16
2023-04-30T06:59:20.808Z,41727.16
2023-04-30T07:01:47.665Z,41735.16
2023-04-30T07:04:14.084Z,41727.16
2023-04-30T07:06:40.531Z,41727.16
2023-04-30T07:09:07.325Z,41715.19
2023-04-30T07:11:33.742Z,41735.16
2023-04-30T07:14:00.665Z,41727.16
2023-04-30T07:16:27.956Z,41723.16
2023-04-30T07:18:54.798Z,41739.13
2023-04-30T07:21:21.832Z,41745.13
2023-04-30T07:23:48.674Z,41735.16
2023-04-30T07:26:15.837Z,41735.16
2023-04-30T07:28:42.340Z,41723.16
2023-04-30T07:31:08.751Z,41727.16
2023-04-30T07:33:35.474Z,41703.19
2023-04-30T07:36:01.914Z,41743.13
2023-04-30T07:38:29.314Z,41747.13
2023-04-30T07:40:55.815Z,41735.16
2023-04-30T07:43:22.242Z,41759.09
2023-04-30T07:45:49.956Z,41739.13
2023-04-30T07:48:17.140Z,41761.09
2023-04-30T07:50:43.543Z,41737.13
2023-04-30T07:53:10.189Z,41747.13
2023-04-30T07:55:36.619Z,41747.13
2023-04-30T07:58:03.843Z,41727.16
2023-04-30T08:00:31.126Z,41747.13
2023-04-30T08:02:59.097Z,41723.16
2023-04-30T08:05:26.787Z,41747.13
2023-04-30T08:07:53.274Z,41727.16
2023-04-30T08:10:19.832Z,41739.13
2023-04-30T08:12:46.763Z,41745.13
2023-04-30T08:15:13.297Z,41755.09
2023-04-30T08:17:39.751Z,41773.06
2023-04-30T08:20:07.035Z,41743.13
2023-04-30T08:22:34.032Z,41759.09
2023-04-30T08:25:01.827Z,41765.09
2023-04-30T08:27:28.640Z,41775.06
2023-04-30T08:29:55.188Z,41767.09
2023-04-30T08:32:21.874Z,41783.06
2023-04-30T08:34:48.328Z,41775.06
2023-04-30T08:37:15.728Z,41753.09
2023-04-30T08:39:42.108Z,41787.03
2023-04-30T08:42:11.623Z,41771.06
2023-04-30T08:44:39.678Z,41751.13
2023-04-30T08:47:07.260Z,41781.06
2023-04-30T08:49:33.949Z,41795.03
2023-04-30T08:52:01.093Z,41771.06
2023-04-30T08:54:31.481Z,41801.03
2023-04-30T08:56:58.121Z,41771.06
2023-04-30T08:59:24.512Z,41781.06
2023-04-30T09:01:53.618Z,41781.06
2023-04-30T09:04:20.780Z,41787.03
2023-04-30T09:06:47.374Z,41787.03
2023-04-30T09:09:16.155Z,41791.03
2023-04-30T09:11:42.861Z,41799.03
2023-04-30T09:14:09.333Z,41799.03
2023-04-30T09:16:49.921Z,41795.03
2023-04-30T09:19:23.425Z,41801.03
2023-04-30T09:21:49.882Z,41803.00
2023-04-30T09:24:18.702Z,41779.06
2023-04-30T09:26:47.286Z,41783.06
2023-04-30T09:29:14.387Z,41791.03
2023-04-30T09:31:47.148Z,41805.00
2023-04-30T09:34:15.000Z,41791.03
2023-04-30T09:36:54.864Z,41799.03
2023-04-30T09:39:21.746Z,41801.03
2023-04-30T09:41:48.188Z,41795.03
2023-04-30T09:44:31.974Z,41793.03
2023-04-30T09:46:59.209Z,41799.03
2023-04-30T09:49:27.121Z,41787.03
2023-04-30T09:52:00.953Z,41807.00
2023-04-30T09:54:30.444Z,41799.03
2023-04-30T09:57:01.631Z,41803.00
2023-04-30T09:59:30.648Z,41799.03
2023-04-30T10:02:01.625Z,41797.03
2023-04-30T10:04:31.974Z,41803.00
2023-04-30T10:07:01.157Z,41787.03
2023-04-30T10:09:35.305Z,41779.06
2023-04-30T10:12:05.567Z,41759.09
2023-04-30T10:14:34.232Z,41743.13
2023-04-30T10:17:11.530Z,41769.06
2023-04-30T10:19:41.620Z,41777.06
2023-04-30T10:22:09.343Z,41763.09
2023-04-30T10:24:36.568Z,41767.09
2023-04-30T10:27:03.497Z,41799.03
2023-04-30T10:29:29.897Z,41815.00
2023-04-30T10:31:57.367Z,41809.00
2023-04-30T10:34:35.716Z,41811.00
2023-04-30T10:37:11.665Z,41809.00
2023-04-30T10:39:38.835Z,41799.03
2023-04-30T10:42:07.055Z,41830.97
2023-04-30T10:44:35.153Z,41830.97
2023-04-30T10:47:03.206Z,41838.94
2023-04-30T10:49:30.008Z,41846.94
2023-04-30T10:52:00.634Z,41846.94
2023-04-30T10:54:29.135Z,41826.97
2023-04-30T10:57:10.506Z,41815.00
2023-04-30T10:59:37.154Z,41838.94
2023-04-30T11:02:04.096Z,41838.94
2023-04-30T11:04:30.620Z,41834.97
2023-04-30T11:07:09.670Z,41797.03
2023-04-30T11:09:44.965Z,41809.00
2023-04-30T11:12:19.318Z,41807.00
2023-04-30T11:14:46.718Z,41826.97
2023-04-30T11:17:22.604Z,41840.94
2023-04-30T11:19:50.638Z,41870.88
2023-04-30T11:22:19.147Z,41874.88
2023-04-30T11:25:03.713Z,41866.91
2023-04-30T11:27:32.490Z,41884.88
2023-04-30T11:29:59.988Z,41936.78
2023-04-30T11:32:32.087Z,41968.72
2023-04-30T11:34:58.680Z,41932.78
2023-04-30T11:37:32.427Z,41904.81
2023-04-30T11:40:05.778Z,41828.97
2023-04-30T11:42:34.541Z,41783.06
2023-04-30T11:45:23.219Z,41735.16
2023-04-30T11:47:54.987Z,41665.28
2023-04-30T11:50:29.615Z,41571.47
2023-04-30T11:52:57.820Z,41469.66
2023-04-30T11:55:25.733Z,41415.75
2023-04-30T11:57:58.580Z,41311.97
2023-04-30T12:00:30.466Z,41252.09
2023-04-30T12:02:59.280Z,41228.13
2023-04-30T12:05:27.976Z,41146.31
2023-04-30T12:08:00.582Z,40984.63
2023-04-30T12:10:27.214Z,40900.81
2023-04-30T12:12:54.695Z,40763.13
2023-04-30T12:15:28.977Z,40593.50
2023-04-30T12:17:56.981Z,40539.59
2023-04-30T12:20:28.188Z,40429.84
2023-04-30T12:22:54.915Z,40354.03
2023-04-30T12:25:22.741Z,40322.09
2023-04-30T12:27:53.186Z,40268.22
2023-04-30T12:30:21.383Z,40230.31
2023-04-30T12:32:51.377Z,40226.31
2023-04-30T12:35:21.084Z,40156.50
2023-04-30T12:37:50.118Z,40230.31
2023-04-30T12:40:19.223Z,40208.38
2023-04-30T12:42:47.041Z,40146.50
2023-04-30T12:45:47.858Z,40154.50
2023-04-30T12:48:15.945Z,40176.44
2023-04-30T12:50:47.165Z,40072.69
2023-04-30T12:53:13.664Z,39982.91
2023-04-30T12:55:40.089Z,39915.06
2023-04-30T12:58:08.764Z,39847.22
2023-04-30T13:00:45.451Z,39807.34
2023-04-30T13:03:16.958Z,39805.34
2023-04-30T13:05:48.187Z,39851.22
2023-04-30T13:08:15.164Z,39843.25
2023-04-30T13:10:41.721Z,39797.34
2023-04-30T13:13:08.576Z,39825.28
2023-04-30T13:15:35.121Z,39795.38
2023-04-30T13:18:01.699Z,39787.38
2023-04-30T13:20:28.174Z,39767.44
2023-04-30T13:22:54.566Z,39735.50
2023-04-30T13:25:22.039Z,39675.66
2023-04-30T13:27:48.461Z,39709.56
2023-04-30T13:30:14.953Z,39707.56
2023-04-30T13:32:43.002Z,39595.84
2023-04-30T13:35:10.169Z,39565.94
2023-04-30T13:37:36.833Z,39500.09
2023-04-30T13:40:03.990Z,39571.91
2023-04-30T13:42:30.660Z,39486.13
2023-04-30T13:44:57.457Z,39440.25
2023-04-30T13:47:24.287Z,39448.25
2023-04-30T13:49:50.900Z,39394.38
2023-04-30T13:52:17.295Z,39332.53
2023-04-30T13:54:43.714Z,39228.81
2023-04-30T13:57:10.128Z,39250.75
2023-04-30T13:59:36.680Z,39234.78
2023-04-30T14:02:03.159Z,39153.00
2023-04-30T14:04:31.130Z,39184.91
2023-04-30T14:06:57.588Z,39097.16
2023-04-30T14:09:24.200Z,39057.25
2023-04-30T14:11:51.232Z,39069.22
2023-04-30T14:14:17.696Z,39115.09
2023-04-30T14:16:44.678Z,39121.09
2023-04-30T14:19:11.170Z,39025.34
2023-04-30T14:21:37.759Z,39065.25
2023-04-30T14:24:04.777Z,39013.38
2023-04-30T14:26:31.274Z,38967.50
2023-04-30T14:28:57.958Z,38849.81
2023-04-30T14:31:24.371Z,38827.88
2023-04-30T14:33:50.789Z,38758.06
2023-04-30T14:36:17.228Z,38694.25
2023-04-30T14:38:43.829Z,38668.31
2023-04-30T14:41:10.214Z,38654.38
2023-04-30T14:43:36.627Z,38602.50
2023-04-30T14:46:03.757Z,38634.44
2023-04-30T14:48:30.285Z,38698.25
2023-04-30T14:50:56.906Z,38682.28
2023-04-30T14:53:23.268Z,38640.41
2023-04-30T14:55:50.337Z,38586.56
2023-04-30T14:58:17.309Z,38590.56
2023-04-30T15:00:43.788Z,38612.50
2023-04-30T15:03:10.249Z,38598.53
2023-04-30T15:05:36.741Z,38606.50
2023-04-30T15:08:03.220Z,38498.81
2023-04-30T15:10:29.959Z,38490.84
2023-04-30T15:12:56.333Z,38474.88
2023-04-30T15:15:27.670Z,38532.72
2023-04-30T15:17:58.096Z,38512.78
2023-04-30T15:20:24.572Z,38482.84
2023-04-30T15:22:51.179Z,38490.84
2023-04-30T15:25:18.128Z,38464.91
2023-04-30T15:27:44.594Z,38446.97
2023-04-30T15:30:11.601Z,38466.91
2023-04-30T15:32:38.805Z,38413.06
2023-04-30T15:35:06.696Z,38387.13
2023-04-30T15:37:34.483Z,38387.13
2023-04-30T15:40:01.123Z,38375.16
2023-04-30T15:42:27.563Z,38357.22
2023-04-30T15:44:53.982Z,38355.22
2023-04-30T15:47:23.225Z,38271.47
2023-04-30T15:49:50.365Z,38315.34
2023-04-30T15:52:17.352Z,38319.31
2023-04-30T15:54:43.807Z,38275.44
2023-04-30T15:57:10.369Z,38265.47
2023-04-30T15:59:36.805Z,38257.50
2023-04-30T16:02:03.303Z,38263.50
2023-04-30T16:04:29.771Z,38247.53
2023-04-30T16:06:57.056Z,38235.56
2023-04-30T16:09:23.851Z,38209.66
2023-04-30T16:11:51.103Z,38207.66
2023-04-30T16:14:17.542Z,38173.75
2023-04-30T16:16:43.955Z,38171.75
2023-04-30T16:19:12.230Z,38159.78
2023-04-30T16:21:39.326Z,38167.78
2023-04-30T16:24:07.005Z,38179.72
2023-04-30T16:26:34.791Z,38159.78
2023-04-30T16:29:01.629Z,38145.84
2023-04-30T16:31:28.560Z,38086.00
2023-04-30T16:33:55.337Z,38099.97
2023-04-30T16:36:22.047Z,38215.63
2023-04-30T16:38:48.510Z,38147.81
2023-04-30T16:41:16.812Z,38099.97
2023-04-30T16:43:43.866Z,38068.06
2023-04-30T16:46:10.649Z,38056.09
2023-04-30T16:48:38.077Z,38038.16
2023-04-30T16:51:05.449Z,38026.19
2023-04-30T16:53:31.833Z,38018.22
2023-04-30T16:55:58.288Z,37972.34
2023-04-30T16:58:24.984Z,38012.22
2023-04-30T17:00:55.852Z,37952.41
2023-04-30T17:03:23.865Z,37984.31
2023-04-30T17:05:52.868Z,37908.53
2023-04-30T17:08:20.058Z,37908.53
2023-04-30T17:10:47.945Z,37930.47
2023-04-30T17:13:14.651Z,37930.47
2023-04-30T17:15:41.265Z,37908.53
2023-04-30T17:18:09.466Z,37900.56
2023-04-30T17:20:36.368Z,37894.59
2023-04-30T17:23:03.428Z,37884.63
2023-04-30T17:25:31.696Z,37884.63
2023-04-30T17:28:01.169Z,37868.66
2023-04-30T17:30:30.857Z,37856.69
2023-04-30T17:32:58.505Z,37848.72
2023-04-30T17:35:25.422Z,37810.84
2023-04-30T17:37:52.939Z,37814.81
2023-04-30T17:40:19.390Z,37820.81
2023-04-30T17:42:46.192Z,37808.84
2023-04-30T17:45:12.617Z,37824.81
2023-04-30T17:47:39.431Z,37804.84
2023-04-30T17:50:08.319Z,37814.81
2023-04-30T17:52:38.303Z,37808.84
2023-04-30T17:55:07.650Z,37780.94
2023-04-30T17:57:34.570Z,37812.84
2023-04-30T18:00:01.294Z,37812.84
2023-04-30T18:02:29.317Z,37834.78
2023-04-30T18:04:56.406Z,37796.88
2023-04-30T18:07:22.870Z,37768.97
2023-04-30T18:09:49.289Z,37780.94
2023-04-30T18:12:16.099Z,37755.00
2023-04-30T18:14:42.891Z,37770.97
2023-04-30T18:17:09.314Z,37753.03
2023-04-30T18:19:43.070Z,37745.03
2023-04-30T18:22:09.588Z,37729.09
2023-04-30T18:24:36.114Z,37745.03
2023-04-30T18:27:04.875Z,37697.19
2023-04-30T18:29:31.498Z,37707.16
2023-04-30T18:31:58.129Z,37689.22
2023-04-30T18:34:25.023Z,37709.16
2023-04-30T18:36:51.716Z,37693.19
2023-04-30T18:39:18.453Z,37681.25
2023-04-30T18:41:45.008Z,37685.22
2023-04-30T18:44:11.775Z,37653.31
2023-04-30T18:46:38.313Z,37645.34
2023-04-30T18:49:05.370Z,37625.41
2023-04-30T18:51:32.285Z,37617.44
2023-04-30T18:53:58.680Z,37635.38
2023-04-30T18:56:25.310Z,37617.44
2023-04-30T18:58:52.126Z,37595.50
2023-04-30T19:01:21.262Z,37589.53
2023-04-30T19:03:48.210Z,37579.56
2023-04-30T19:06:15.217Z,37559.63
2023-04-30T19:08:42.721Z,37573.56
2023-04-30T19:11:10.399Z,37575.56
2023-04-30T19:13:36.809Z,37563.59
2023-04-30T19:16:04.158Z,37559.63
2023-04-30T19:18:30.725Z,37589.53
2023-04-30T19:21:02.076Z,37577.56
2023-04-30T19:23:30.725Z,37555.63
2023-04-30T19:25:58.474Z,37575.56
2023-04-30T19:28:25.234Z,37555.63
2023-04-30T19:30:55.227Z,37549.66
2023-04-30T19:33:22.670Z,37515.75
2023-04-30T19:35:54.493Z,37531.72
2023-04-30T19:38:21.711Z,37561.63
2023-04-30T19:40:53.077Z,37537.69
2023-04-30T19:43:23.077Z,37533.69
2023-04-30T19:45:57.391Z,37517.75
2023-04-30T19:48:25.519Z,37529.72
2023-04-30T19:50:55.620Z,37505.78
2023-04-30T19:53:22.458Z,37527.72
2023-04-30T19:55:48.964Z,37485.84
2023-04-30T19:58:15.462Z,37497.81
2023-04-30T20:00:44.878Z,37497.81
2023-04-30T20:03:13.817Z,37499.81
2023-04-30T20:05:40.509Z,37487.84
2023-04-30T20:08:08.909Z,37505.78
2023-04-30T20:10:37.918Z,37483.84
2023-04-30T20:13:06.253Z,37485.84
2023-04-30T20:15:33.217Z,37473.88
2023-04-30T20:18:01.397Z,37453.94
2023-04-30T20:20:29.381Z,37475.88
2023-04-30T20:22:56.759Z,37505.78
2023-04-30T20:25:29.346Z,37497.81
2023-04-30T20:27:56.326Z,37473.88
2023-04-30T20:30:22.852Z,37497.81
2023-04-30T20:32:49.381Z,37473.88
2023-04-30T20:35:16.074Z,37501.81
2023-04-30T20:37:42.633Z,37489.84
2023-04-30T20:40:09.496Z,37473.88
2023-04-30T20:42:36.058Z,37473.88
2023-04-30T20:45:05.225Z,37501.81
2023-04-30T20:47:32.266Z,37457.94
2023-04-30T20:49:58.832Z,37449.97
2023-04-30T20:52:25.976Z,37479.88
2023-04-30T20:54:52.410Z,37442.00
2023-04-30T20:57:19.854Z,37447.97
2023-04-30T20:59:46.253Z,37489.84
2023-04-30T21:02:12.696Z,37453.94
2023-04-30T21:04:39.940Z,37438.00
2023-04-30T21:07:10.965Z,37459.94
2023-04-30T21:09:38.553Z,37473.88
2023-04-30T21:12:05.377Z,37453.94
2023-04-30T21:14:32.187Z,37481.88
2023-04-30T21:16:59.642Z,37463.91
2023-04-30T21:19:33.429Z,37461.94
2023-04-30T21:22:00.380Z,37469.91
2023-04-30T21:24:30.328Z,37461.94
2023-04-30T21:26:57.025Z,37485.84
2023-04-30T21:29:24.748Z,37457.94
2023-04-30T21:31:51.126Z,37485.84
2023-04-30T21:34:17.781Z,37485.84
2023-04-30T21:36:44.228Z,37473.88
2023-04-30T21:39:11.302Z,37481.88
2023-04-30T21:41:37.752Z,37501.81
2023-04-30T21:44:04.614Z,37481.88
2023-04-30T21:46:31.224Z,37461.94
2023-04-30T21:48:57.682Z,37453.94
2023-04-30T21:51:24.146Z,37477.88
2023-04-30T21:53:50.726Z,37445.97
2023-04-30T21:56:17.781Z,37465.91
2023-04-30T21:58:45.018Z,37473.88
2023-04-30T22:01:11.574Z,37473.88
2023-04-30T22:03:38.115Z,37463.91
2023-04-30T22:06:04.921Z,37497.81
2023-04-30T22:08:31.679Z,37473.88
2023-04-30T22:10:59.692Z,37445.97
2023-04-30T22:13:27.637Z,37473.88
2023-04-30T22:15:54.874Z,37438.00
2023-04-30T22:18:22.602Z,37428.03
2023-04-30T22:20:49.947Z,37465.91
2023-04-30T22:23:17.236Z,37453.94
2023-04-30T22:25:43.957Z,37449.97
2023-04-30T22:28:10.534Z,37477.88
2023-04-30T22:30:37.704Z,37483.84
2023-04-30T22:33:04.258Z,37481.88
2023-04-30T22:35:31.032Z,37469.91
2023-04-30T22:37:57.415Z,37465.91
2023-04-30T22:40:24.162Z,37455.94
2023-04-30T22:42:50.765Z,37473.88
2023-04-30T22:45:17.231Z,37473.88
2023-04-30T22:47:45.662Z,37485.84
2023-04-30T22:50:12.249Z,37457.94
2023-04-30T22:52:38.924Z,37491.84
2023-04-30T22:55:06.617Z,37481.88
2023-04-30T22:57:33.149Z,37509.78
2023-04-30T22:59:59.621Z,37513.75
2023-04-30T23:02:26.515Z,37483.84
2023-04-30T23:04:53.016Z,37505.78
2023-04-30T23:07:19.440Z,37485.84
2023-04-30T23:09:46.113Z,37449.97
2023-04-30T23:12:12.540Z,37473.88
2023-04-30T23:14:39.166Z,37475.88
2023-04-30T23:17:05.772Z,37453.94
2023-04-30T23:19:32.780Z,37459.94
2023-04-30T23:21:59.186Z,37445.97
2023-04-30T23:24:26.198Z,37469.91
2023-04-30T23:26:52.679Z,37479.88
2023-04-30T23:29:19.563Z,37461.94
2023-04-30T23:31:46.271Z,37477.88
2023-04-30T23:34:12.820Z,37463.91
2023-04-30T23:36:39.958Z,37461.94
2023-04-30T23:39:06.383Z,37465.91
2023-04-30T23:41:32.778Z,37465.91
2023-04-30T23:43:59.220Z,37457.94
2023-04-30T23:46:25.682Z,37473.88
2023-04-30T23:48:52.093Z,37459.94
2023-04-30T23:51:18.940Z,37445.97
2023-04-30T23:53:45.709Z,37497.81
2023-04-30T23:56:12.307Z,37489.84
2023-04-30T23:58:38.856Z,37489.84
